Time;durP1;ratioP1;P1;durP2;ratioP2;P2;SDS_P1;SDS_P2;PMS_P1;PMS_P2;Temp;Humidity;BMP_temperature;BMP_pressure;BME280_temperature;BME280_humidity;BME280_pressure;Samples;Min_cycle;Max_cycle;Signal;HPM_P1;HPM_P2
2022/07/06 00:01:25;;;;;;;10.27;5.70;;;;;;;22.77;56.82;98910.09;5043235;28;20194;-87
2022/07/06 00:03:50;;;;;;;12.67;6.63;;;;;;;21.54;56.78;98735.34;5040167;28;20281;-87
2022/07/06 00:06:17;;;;;;;8.40;5.93;;;;;;;20.75;56.00;98564.53;5041742;28;20158;-87
2022/07/06 00:08:43;;;;;;;9.00;6.27;;;;;;;22.75;55.82;98890.34;5040157;28;20242;-88
2022/07/06 00:11:09;;;;;;;9.40;5.93;;;;;;;21.99;56.39;98792.41;5040810;28;20206;-88
2022/07/06 00:13:34;;;;;;;10.30;6.80;;;;;;;22.75;58.36;98952.28;5039547;28;20241;-89
2022/07/06 00:16:00;;;;;;;11.40;8.43;;;;;;;21.05;62.55;98746.94;5042665;28;20201;-90
2022/07/06 00:18:25;;;;;;;11.83;8.50;;;;;;;20.74;64.01;98727.50;5043722;28;20331;-89
2022/07/06 00:20:51;;;;;;;12.03;9.50;;;;;;;22.03;66.48;99029.53;5042910;28;20309;-90
2022/07/06 00:23:17;;;;;;;10.83;9.07;;;;;;;18.75;68.46;98532.41;5040273;28;20184;-88
2022/07/06 00:25:42;;;;;;;12.57;8.80;;;;;;;19.90;69.91;98765.63;5040272;28;20210;-90
2022/07/06 00:28:08;;;;;;;14.90;9.30;;;;;;;22.26;70.41;99150.56;5039218;28;20224;-89
2022/07/06 00:30:33;;;;;;;12.63;8.30;;;;;;;20.75;71.81;98935.84;5037742;28;20284;-90
2022/07/06 00:32:59;;;;;;;14.27;8.60;;;;;;;19.34;73.55;98740.91;5038059;28;20249;-88
2022/07/06 00:35:25;;;;;;;11.27;8.77;;;;;;;18.09;73.69;98493.19;5037180;28;20716;-89
2022/07/06 00:37:51;;;;;;;15.30;8.80;;;;;;;22.04;72.84;99120.63;5037286;28;20209;-87
2022/07/06 00:40:17;;;;;;;12.10;8.63;;;;;;;18.31;73.29;98523.91;5037191;28;20177;-87
2022/07/06 00:42:47;;;;;;;14.07;9.40;;;;;;;20.26;74.70;98891.47;5037484;28;20193;-88
2022/07/06 00:45:15;;;;;;;11.40;9.13;;;;;;;19.91;73.52;98775.88;5035356;28;20268;-87
2022/07/06 00:47:41;;;;;;;14.57;9.20;;;;;;;18.95;71.67;98543.47;5038668;28;20184;-87
2022/07/06 00:50:15;;;;;;;15.43;8.97;;;;;;;19.48;71.82;98615.13;5037602;28;20170;-88
2022/07/06 00:52:49;;;;;;;12.37;9.00;;;;;;;19.57;72.68;98670.72;5037061;28;20158;-87
2022/07/06 00:55:17;;;;;;;11.40;9.23;;;;;;;19.95;73.29;98749.34;5036721;28;20221;-87
2022/07/06 00:57:42;;;;;;;14.87;9.90;;;;;;;19.93;74.48;98742.50;5037997;28;20176;-89
2022/07/06 01:00:11;;;;;;;15.83;9.90;;;;;;;20.57;74.67;98853.63;5038369;28;20170;-91
2022/07/06 01:02:36;;;;;;;14.47;9.93;;;;;;;20.42;72.74;98764.56;5037886;28;20190;-90
2022/07/06 01:05:07;;;;;;;12.77;9.50;;;;;;;21.36;71.75;98872.03;5036063;28;20162;-91
2022/07/06 01:07:33;;;;;;;15.83;10.10;;;;;;;21.55;72.78;98930.25;5035902;28;20196;-88
2022/07/06 01:09:59;;;;;;;13.47;9.83;;;;;;;19.43;71.54;98553.53;5042289;28;20162;-87
2022/07/06 01:12:25;;;;;;;12.73;9.73;;;;;;;21.60;70.63;98850.34;5042136;28;20166;-88
2022/07/06 01:14:50;;;;;;;15.33;9.90;;;;;;;20.91;70.49;98723.03;5040686;28;20252;-88
2022/07/06 01:17:17;;;;;;;13.43;9.50;;;;;;;22.43;69.96;98959.53;5036220;28;20196;-87
2022/07/06 01:19:42;;;;;;;17.70;10.17;;;;;;;21.73;69.38;98836.47;5035874;28;20641;-87
2022/07/06 01:22:09;;;;;;;16.60;9.57;;;;;;;23.05;69.42;99056.91;5035495;28;20273;-87
2022/07/06 01:24:36;;;;;;;10.40;9.17;;;;;;;21.91;68.66;98835.47;5034961;28;20559;-88
2022/07/06 01:27:02;;;;;;;13.80;9.80;;;;;;;22.86;68.49;98990.03;5035990;28;20154;-88
2022/07/06 01:29:27;;;;;;;14.23;9.57;;;;;;;21.30;68.09;98701.25;5035081;28;20249;-88
2022/07/06 01:31:53;;;;;;;13.97;9.40;;;;;;;23.23;68.47;99030.88;5036145;28;20194;-88
2022/07/06 01:34:19;;;;;;;11.10;9.60;;;;;;;23.11;68.02;99002.63;5034573;28;20169;-87
2022/07/06 01:36:45;;;;;;;13.60;9.40;;;;;;;23.19;67.94;99016.28;5035907;28;20707;-87
2022/07/06 01:39:10;;;;;;;14.47;9.60;;;;;;;21.92;67.68;98790.78;5035955;28;20174;-87
2022/07/06 01:41:37;;;;;;;15.67;9.37;;;;;;;22.04;67.57;98806.97;5035977;28;20208;-89
2022/07/06 01:44:03;;;;;;;12.50;10.00;;;;;;;22.67;66.85;98908.53;5033658;28;20173;-89
2022/07/06 01:46:28;;;;;;;12.97;8.93;;;;;;;23.30;67.38;99006.66;5034046;28;20154;-88
2022/07/06 01:48:54;;;;;;;12.90;8.90;;;;;;;21.85;65.89;98737.56;5033781;28;20586;-88
2022/07/06 01:51:19;;;;;;;15.07;11.37;;;;;;;22.76;65.83;98894.66;5034809;28;20574;-87
2022/07/06 01:53:45;;;;;;;27.13;17.87;;;;;;;22.65;67.55;98887.06;5032974;28;20599;-88
2022/07/06 01:56:11;;;;;;;24.13;15.00;;;;;;;21.37;69.16;98713.22;5033382;28;20682;-88
2022/07/06 01:58:37;;;;;;;22.27;13.87;;;;;;;22.42;69.58;98895.91;5034582;28;20190;-89
2022/07/06 02:01:10;;;;;;;17.63;13.07;;;;;;;22.53;70.11;98938.75;5033259;28;20212;-88
2022/07/06 02:03:36;;;;;;;17.70;11.50;;;;;;;21.09;70.50;98681.75;5041515;28;20216;-86
2022/07/06 02:06:02;;;;;;;20.73;13.23;;;;;;;21.02;71.48;98698.91;5057148;28;20150;-87
2022/07/06 02:08:28;;;;;;;16.27;13.13;;;;;;;21.58;72.09;98796.28;5060193;23;20242;-87
2022/07/06 02:10:53;;;;;;;19.50;12.93;;;;;;;20.91;72.12;98682.72;5025535;28;20175;-89
2022/07/06 02:13:19;;;;;;;17.00;12.03;;;;;;;21.34;71.97;98765.59;5018787;28;20171;-88
2022/07/06 02:15:45;;;;;;;17.83;13.50;;;;;;;22.59;72.39;98985.16;5014691;28;20190;-88
2022/07/06 02:18:10;;;;;;;23.17;13.67;;;;;;;20.41;71.83;98580.28;5013770;28;20174;-86
2022/07/06 02:20:36;;;;;;;23.17;14.90;;;;;;;22.09;71.76;98868.75;5013744;28;20163;-89
2022/07/06 02:23:01;;;;;;;26.13;16.13;;;;;;;21.51;71.04;98761.13;5012255;28;20171;-87
2022/07/06 02:25:26;;;;;;;23.40;17.10;;;;;;;20.47;70.57;98563.94;5013566;28;20178;-89
2022/07/06 02:27:52;;;;;;;18.07;13.43;;;;;;;21.59;70.77;98773.94;5014039;28;20227;-89
2022/07/06 02:30:18;;;;;;;20.57;13.60;;;;;;;22.29;71.41;98900.34;5013228;28;20166;-89
2022/07/06 02:32:43;;;;;;;20.27;13.43;;;;;;;21.18;71.10;98704.81;5013868;28;20597;-89
2022/07/06 02:35:09;;;;;;;22.30;15.00;;;;;;;22.44;70.66;98915.69;5013431;28;20163;-88
2022/07/06 02:37:34;;;;;;;20.87;14.13;;;;;;;22.80;70.77;98987.50;5013618;28;20182;-87
2022/07/06 02:39:59;;;;;;;18.70;14.30;;;;;;;19.43;70.46;98438.03;5014740;28;20226;-88
2022/07/06 02:42:25;;;;;;;23.97;13.27;;;;;;;22.74;70.56;98997.91;5013459;28;20667;-89
2022/07/06 02:44:55;;;;;;;25.57;12.60;;;;;;;20.41;69.69;98613.72;5013264;28;20211;-88
2022/07/06 02:47:20;;;;;;;21.17;10.77;;;;;;;21.49;69.80;98791.19;5014222;28;20175;-86
2022/07/06 02:49:46;;;;;;;28.03;17.83;;;;;;;22.77;70.24;99008.19;5016289;28;20257;-88
2022/07/06 02:52:11;;;;;;;48.90;28.60;;;;;;;19.71;69.67;98489.19;5016884;28;20917;-90
2022/07/06 02:54:37;;;;;;;56.53;37.43;;;;;;;19.92;70.27;98524.97;5022299;28;20233;-87
2022/07/06 02:57:02;;;;;;;56.23;35.87;;;;;;;22.45;70.40;98948.31;5027721;28;20167;-89
2022/07/06 02:59:28;;;;;;;91.47;53.47;;;;;;;19.66;69.99;98478.09;5023254;28;20190;-88
2022/07/06 03:01:53;;;;;;;35.97;23.33;;;;;;;22.40;69.86;98926.03;5019742;28;20209;-89
2022/07/06 03:04:19;;;;;;;27.83;17.43;;;;;;;21.28;69.61;98736.47;5018870;28;20261;-90
2022/07/06 03:06:44;;;;;;;21.27;14.63;;;;;;;22.78;70.03;99003.88;5021596;28;20167;-90
2022/07/06 03:09:09;;;;;;;36.60;23.13;;;;;;;20.53;69.40;98611.03;5019738;28;20690;-89
2022/07/06 03:11:38;;;;;;;61.23;41.13;;;;;;;20.04;70.19;98555.72;5020712;28;20197;-90
2022/07/06 03:14:04;;;;;;;51.17;33.17;;;;;;;21.12;71.41;98717.75;5022931;28;20171;-91
2022/07/06 03:16:30;;;;;;;28.43;15.40;;;;;;;20.31;73.57;98653.22;5018716;28;20554;-90
2022/07/06 03:18:55;;;;;;;26.40;14.27;;;;;;;19.45;74.52;98509.06;5020930;28;20258;-89
2022/07/06 03:21:21;;;;;;;18.63;14.13;;;;;;;19.94;75.01;98603.75;5018479;28;20197;-89
2022/07/06 03:23:46;;;;;;;20.47;14.53;;;;;;;21.04;74.71;98784.69;5018426;28;20224;-88
2022/07/06 03:26:11;;;;;;;21.73;13.93;;;;;;;21.86;75.55;98948.91;5016717;28;20179;-88
2022/07/06 03:28:37;;;;;;;19.07;13.13;;;;;;;20.89;76.08;98799.41;5018430;28;20179;-87
2022/07/06 03:31:02;;;;;;;17.27;12.43;;;;;;;21.79;75.37;98913.72;5018389;28;20206;-87
2022/07/06 03:33:28;;;;;;;18.67;12.00;;;;;;;22.55;74.01;99023.91;5016538;28;20171;-88
2022/07/06 03:35:53;;;;;;;15.67;12.40;;;;;;;20.69;73.59;98688.91;5019673;28;20170;-89
2022/07/06 03:38:18;;;;;;;18.20;11.40;;;;;;;22.09;73.94;98915.19;5021647;28;20179;-89
2022/07/06 03:40:44;;;;;;;17.77;11.97;;;;;;;21.52;73.97;98832.38;5020901;28;20181;-89
2022/07/06 03:43:09;;;;;;;15.97;11.80;;;;;;;20.78;73.67;98659.69;5021165;28;20175;-85
2022/07/06 03:45:35;;;;;;;17.23;11.97;;;;;;;21.41;72.85;98741.50;5023438;28;20171;-89
2022/07/06 03:48:00;;;;;;;17.33;11.87;;;;;;;22.56;71.97;98914.66;5032192;28;20174;-88
2022/07/06 03:50:26;;;;;;;15.37;11.87;;;;;;;23.15;72.13;99050.78;5029739;28;20173;-89
2022/07/06 03:52:51;;;;;;;16.53;11.97;;;;;;;19.34;73.82;98461.16;5022573;28;20174;-89
2022/07/06 03:55:16;;;;;;;20.07;12.17;;;;;;;19.53;74.24;98508.13;5019114;28;20258;-89
2022/07/06 03:57:42;;;;;;;14.90;10.37;;;;;;;22.70;72.66;99031.50;5023168;28;20555;-90
2022/07/06 04:00:09;;;;;;;13.97;11.00;;;;;;;22.10;72.36;98940.97;5001486;28;20264;-89
2022/07/06 04:02:34;;;;;;;16.00;11.50;;;;;;;22.44;74.54;99018.00;5019045;28;20323;-90
2022/07/06 04:05:00;;;;;;;17.53;12.47;;;;;;;21.89;77.81;98950.63;4999243;28;20202;-90
2022/07/06 04:07:25;;;;;;;18.60;13.07;;;;;;;21.14;78.37;98830.13;5016280;28;20356;-88
2022/07/06 04:09:51;;;;;;;17.70;12.90;;;;;;;21.52;78.61;98868.44;5017510;28;20182;-90
2022/07/06 04:12:17;;;;;;;17.20;12.60;;;;;;;21.96;78.81;98963.44;5025849;28;20182;-90
2022/07/06 04:14:43;;;;;;;18.63;12.90;;;;;;;22.09;78.26;98962.44;5040731;28;20185;-90
2022/07/06 04:19:52;;;;;;;18.67;12.63;;;;;;;20.53;78.31;98670.19;5023362;28;20565;-92
2022/07/06 04:22:18;;;;;;;17.87;13.07;;;;;;;20.50;78.39;98670.22;5022620;28;20242;-91
2022/07/06 04:24:44;;;;;;;19.00;14.33;;;;;;;18.73;79.91;98396.50;5025974;28;20266;-90
2022/07/06 04:27:09;;;;;;;17.23;14.53;;;;;;;18.96;80.91;98424.59;5036481;28;20182;-90
2022/07/06 04:29:35;;;;;;;23.40;14.60;;;;;;;19.99;80.60;98542.06;5032405;28;20197;-90
2022/07/06 04:32:01;;;;;;;20.10;14.50;;;;;;;20.93;78.02;98614.06;5024589;28;21005;-90
2022/07/06 04:34:27;;;;;;;23.87;14.47;;;;;;;23.54;77.86;99049.44;5023949;28;20722;-91
2022/07/06 04:36:52;;;;;;;18.50;14.77;;;;;;;21.92;79.49;98807.09;5025927;28;20183;-90
2022/07/06 04:39:18;;;;;;;18.40;15.30;;;;;;;19.21;81.96;98418.47;5029161;28;20213;-88
2022/07/06 04:41:43;;;;;;;17.53;15.10;;;;;;;21.96;80.54;98818.22;5043831;28;20770;-90
2022/07/06 04:44:10;;;;;;;21.50;15.60;;;;;;;21.59;79.83;98735.31;5022974;28;20585;-90
2022/07/06 04:46:37;;;;;;;19.80;15.23;;;;;;;21.20;79.27;98607.84;5027368;28;20186;-91
2022/07/06 04:49:02;;;;;;;17.33;14.97;;;;;;;21.40;78.21;98585.25;5039116;28;20214;-90
2022/07/06 04:51:28;;;;;;;20.73;15.03;;;;;;;22.50;78.23;98790.88;5022820;28;20218;-90
2022/07/06 04:53:53;;;;;;;18.20;15.37;;;;;;;21.07;77.46;98523.88;5039022;28;20248;-90
2022/07/06 04:56:19;;;;;;;18.70;14.93;;;;;;;21.31;79.65;98626.59;5022775;28;20262;-90
2022/07/06 04:58:44;;;;;;;17.30;15.10;;;;;;;23.83;80.04;99055.91;5027477;28;20189;-90
2022/07/06 05:01:10;;;;;;;21.53;15.53;;;;;;;23.69;78.45;98972.53;5012163;28;20230;-90
2022/07/06 05:03:39;;;;;;;20.13;15.93;;;;;;;20.59;80.12;98535.56;5040669;28;20209;-89
2022/07/06 05:06:05;;;;;;;19.47;15.53;;;;;;;21.39;80.37;98634.22;5017191;28;20186;-88
2022/07/06 05:08:31;;;;;;;22.03;15.80;;;;;;;23.90;80.49;99064.41;5021942;28;20218;-89
2022/07/06 05:10:56;;;;;;;18.13;15.23;;;;;;;24.06;79.72;99050.38;5015307;28;20182;-88
2022/07/06 05:13:22;;;;;;;18.67;15.37;;;;;;;22.56;81.47;98830.38;5025562;28;20170;-91
2022/07/06 05:15:47;;;;;;;18.97;15.03;;;;;;;22.82;81.26;98885.09;5022956;28;20198;-89
2022/07/06 05:18:13;;;;;;;17.90;15.03;;;;;;;23.06;80.52;98906.28;5022478;28;20190;-90
2022/07/06 05:20:38;;;;;;;18.40;15.13;;;;;;;22.84;80.13;98867.88;5021023;28;20198;-90
2022/07/06 05:23:04;;;;;;;19.93;15.10;;;;;;;23.77;80.95;99055.97;5017183;28;20201;-91
2022/07/06 05:25:30;;;;;;;19.63;15.67;;;;;;;22.37;78.83;98738.63;5015817;28;20268;-91
2022/07/06 05:27:55;;;;;;;23.37;15.57;;;;;;;24.47;77.57;99063.50;5041218;28;20754;-90
2022/07/06 05:30:21;;;;;;;19.93;14.27;;;;;;;22.92;78.37;98866.03;5027245;28;20254;-88
2022/07/06 05:32:46;;;;;;;18.63;14.67;;;;;;;22.77;78.61;98814.59;5026497;28;20174;-88
2022/07/06 05:35:12;;;;;;;18.77;14.93;;;;;;;22.36;77.12;98679.34;5018442;28;20250;-89
2022/07/06 05:37:37;;;;;;;16.27;13.60;;;;;;;22.45;78.37;98766.88;5034271;28;20192;-88
2022/07/06 05:40:03;;;;;;;17.67;15.00;;;;;;;23.15;80.09;98934.56;5014595;28;20258;-88
2022/07/06 05:42:29;;;;;;;20.90;14.90;;;;;;;23.94;81.36;99090.22;5014554;28;20264;-88
2022/07/06 05:44:56;;;;;;;20.57;14.40;;;;;;;22.36;79.11;98742.06;5006814;28;20676;-88
2022/07/06 05:50:12;;;;;;;16.10;13.77;;;;;;;24.38;79.60;99075.75;4999642;28;20256;-90
2022/07/06 05:52:39;;;;;;;19.77;14.33;;;;;;;23.68;79.08;98933.78;5004553;28;20628;-90
2022/07/06 05:55:05;;;;;;;20.43;15.33;;;;;;;23.75;77.29;98894.88;5027218;28;20320;-90
2022/07/06 05:57:31;;;;;;;15.90;13.10;;;;;;;21.98;78.13;98678.13;5008881;28;20618;-89
2022/07/06 05:59:56;;;;;;;17.20;13.83;;;;;;;24.46;78.62;99092.00;4998473;28;20270;-88
2022/07/06 06:02:22;;;;;;;16.30;13.80;;;;;;;23.69;79.02;98977.69;5001139;28;20241;-88
2022/07/06 06:04:47;;;;;;;17.07;14.20;;;;;;;24.43;77.23;98998.88;5010954;28;20244;-89
2022/07/06 06:07:12;;;;;;;18.13;13.10;;;;;;;24.90;76.66;99084.31;5011144;28;20222;-89
2022/07/06 06:09:38;;;;;;;17.57;14.23;;;;;;;24.67;75.99;99019.97;5012550;28;20644;-89
2022/07/06 06:12:04;;;;;;;17.90;14.50;;;;;;;21.81;74.17;98514.28;4987593;28;20183;-88
2022/07/06 06:14:29;;;;;;;17.37;14.67;;;;;;;22.38;73.66;98597.63;4983135;28;20283;-88
2022/07/06 06:16:54;;;;;;;17.23;14.80;;;;;;;23.68;71.28;98722.66;4985268;28;20206;-87
2022/07/06 06:19:20;;;;;;;16.70;14.03;;;;;;;25.56;70.87;99037.19;4993500;28;20187;-86
2022/07/06 06:21:45;;;;;;;18.60;15.07;;;;;;;23.50;70.33;98671.34;4993710;28;20202;-88
2022/07/06 06:24:11;;;;;;;17.37;15.03;;;;;;;24.08;68.58;98739.09;4997229;28;20191;-88
2022/07/06 06:26:36;;;;;;;16.80;15.10;;;;;;;24.62;68.25;98840.59;4999424;28;20620;-89
2022/07/06 06:29:02;;;;;;;20.63;14.97;;;;;;;25.41;68.25;98955.41;4996299;28;20194;-88
2022/07/06 06:31:27;;;;;;;15.40;13.90;;;;;;;24.74;68.14;98867.09;4997022;28;20266;-88
2022/07/06 06:33:53;;;;;;;16.33;13.70;;;;;;;26.04;65.61;99033.44;4996864;28;20239;-88
2022/07/06 06:36:19;;;;;;;18.87;13.90;;;;;;;24.63;68.06;98865.59;4994945;28;20207;-91
2022/07/06 06:38:44;;;;;;;16.03;13.93;;;;;;;25.02;68.26;98923.47;4995269;28;20213;-88
2022/07/06 06:41:10;;;;;;;16.03;12.97;;;;;;;25.62;65.97;98965.31;4977335;28;20675;-88
2022/07/06 06:43:35;;;;;;;18.10;13.30;;;;;;;27.23;63.07;99094.41;4977684;28;20191;-88
2022/07/06 06:46:00;;;;;;;15.60;13.47;;;;;;;26.28;64.19;99032.88;4999136;28;20183;-87
2022/07/06 06:48:26;;;;;;;16.70;13.53;;;;;;;24.59;65.10;98804.41;5016805;28;20175;-89
2022/07/06 06:50:51;;;;;;;17.97;13.70;;;;;;;25.51;65.00;98979.41;5000950;28;20191;-89
2022/07/06 06:53:17;;;;;;;16.20;14.50;;;;;;;25.75;64.76;99009.94;4998820;28;20217;-90
2022/07/06 06:55:43;;;;;;;18.23;15.03;;;;;;;24.74;65.14;98825.66;4995460;28;20719;-90
2022/07/06 06:58:08;;;;;;;19.37;14.87;;;;;;;24.21;65.05;98742.28;4994096;28;20581;-89
2022/07/06 07:00:34;;;;;;;19.70;15.30;;;;;;;26.11;64.52;99041.94;4993572;28;20179;-88
2022/07/06 07:02:59;;;;;;;17.47;14.80;;;;;;;26.24;63.00;99013.06;4984926;28;20647;-89
2022/07/06 07:05:25;;;;;;;17.77;15.13;;;;;;;25.04;64.71;98879.41;4986728;28;20192;-89
2022/07/06 07:07:50;;;;;;;20.60;15.70;;;;;;;26.54;63.76;99070.28;4985434;28;20226;-90
2022/07/06 07:10:16;;;;;;;18.40;16.07;;;;;;;25.80;64.72;98987.34;4997916;28;20311;-88
2022/07/06 07:12:48;;;;;;;17.03;15.13;;;;;;;25.52;63.61;98922.31;5013473;28;20182;-90
2022/07/06 07:15:15;;;;;;;17.83;15.73;;;;;;;25.83;64.17;98999.38;5019294;28;20187;-90
2022/07/06 07:17:41;;;;;;;18.23;16.10;;;;;;;25.18;65.15;98937.78;5000971;28;20186;-88
2022/07/06 07:20:07;;;;;;;18.10;16.13;;;;;;;26.35;64.56;99080.28;4996927;28;20759;-90
2022/07/06 07:22:32;;;;;;;18.43;15.70;;;;;;;25.12;64.68;98896.47;5019081;28;20221;-90
2022/07/06 07:25:01;;;;;;;20.30;15.97;;;;;;;25.60;65.76;98974.84;5017119;28;20186;-90
2022/07/06 07:27:27;;;;;;;16.90;14.77;;;;;;;24.28;65.37;98755.97;5015086;28;20571;-90
2022/07/06 07:29:53;;;;;;;19.90;15.90;;;;;;;25.96;64.28;99017.22;5025679;28;20186;-87
2022/07/06 07:32:19;;;;;;;20.90;16.20;;;;;;;26.31;63.89;99021.56;5036563;28;20201;-89
2022/07/06 07:34:45;;;;;;;17.83;15.93;;;;;;;26.54;62.26;99036.53;5025830;28;20183;-90
2022/07/06 07:37:10;;;;;;;18.70;16.40;;;;;;;25.82;62.13;98912.09;5021396;28;20923;-90
2022/07/06 07:39:36;;;;;;;18.63;16.17;;;;;;;26.43;62.00;99002.19;5014454;28;20320;-91
2022/07/06 07:42:02;;;;;;;19.27;15.93;;;;;;;23.80;62.25;98619.03;5013711;28;20210;-89
2022/07/06 07:44:27;;;;;;;20.33;16.40;;;;;;;23.72;64.25;98687.28;5013457;28;20197;-89
2022/07/06 07:46:53;;;;;;;18.27;15.90;;;;;;;26.07;64.10;99084.44;5013450;28;20186;-89
2022/07/06 07:49:20;;;;;;;18.13;15.93;;;;;;;25.50;64.85;99022.63;5015276;28;20187;-89
2022/07/06 07:51:46;;;;;;;18.73;16.70;;;;;;;25.86;65.82;99101.34;5016590;28;20206;-90
2022/07/06 07:54:12;;;;;;;22.77;17.37;;;;;;;25.86;64.99;99044.28;5012747;28;20210;-90
2022/07/06 07:56:40;;;;;;;18.63;16.70;;;;;;;23.18;63.71;98519.56;5013427;28;20186;-90
2022/07/06 07:59:06;;;;;;;21.00;17.07;;;;;;;26.34;62.18;98988.56;5014878;28;20870;-90
2022/07/06 08:01:32;;;;;;;20.67;16.77;;;;;;;24.27;62.30;98650.75;4996903;28;20249;-88
2022/07/06 08:03:57;;;;;;;19.08;17.08;;;;;;;27.02;62.06;99082.00;5013612;28;20182;-89
2022/07/06 08:06:23;;;;;;;20.70;16.40;;;;;;;27.36;61.19;99085.34;5020223;28;20198;-90
2022/07/06 08:08:48;;;;;;;18.70;16.70;;;;;;;27.22;60.20;99037.25;5022142;28;20227;-88
2022/07/06 08:11:14;;;;;;;20.75;16.80;;;;;;;26.66;60.38;98946.16;5012195;28;20192;-90
2022/07/06 08:13:39;;;;;;;18.60;16.60;;;;;;;25.92;60.95;98880.69;5008334;28;20189;-90
2022/07/06 08:16:04;;;;;;;20.05;16.88;;;;;;;26.07;60.00;98828.38;4995389;28;20194;-91
2022/07/06 08:18:30;;;;;;;23.30;16.45;;;;;;;26.89;60.55;99011.31;5004453;28;20181;-89
2022/07/06 08:20:56;;;;;;;18.02;15.95;;;;;;;26.03;61.11;98889.06;5015364;28;20185;-90
2022/07/06 08:23:23;;;;;;;18.00;16.10;;;;;;;27.69;59.08;99074.88;5016901;28;20267;-89
2022/07/06 08:25:48;;;;;;;18.90;15.88;;;;;;;27.16;60.61;99077.28;5017482;28;20192;-88
2022/07/06 08:28:14;;;;;;;17.02;15.23;;;;;;;27.58;58.72;99063.97;5025599;28;20183;-90
2022/07/06 08:30:39;;;;;;;17.83;15.93;;;;;;;26.38;59.56;98854.38;5013189;28;20182;-90
2022/07/06 08:33:05;;;;;;;18.30;15.38;;;;;;;27.27;58.73;98981.63;5015082;28;20192;-90
2022/07/06 08:35:31;;;;;;;19.50;15.27;;;;;;;27.18;58.12;98944.66;5015513;28;20203;-91
2022/07/06 08:37:57;;;;;;;18.17;16.27;;;;;;;28.09;57.74;99063.22;5018326;28;20208;-88
2022/07/06 08:40:22;;;;;;;19.80;14.70;;;;;;;27.11;58.18;98922.38;5018611;28;20249;-89
2022/07/06 08:42:53;;;;;;;19.60;16.15;;;;;;;27.53;57.57;98989.50;5014201;28;20203;-87
2022/07/06 08:45:19;;;;;;;16.70;14.98;;;;;;;27.95;57.43;99028.06;4997222;28;20945;-89
2022/07/06 08:47:48;;;;;;;18.02;15.63;;;;;;;28.39;56.95;99050.91;4992151;28;20296;-89
2022/07/06 08:50:14;;;;;;;20.50;15.77;;;;;;;28.00;58.06;99066.06;5001146;28;20190;-88
2022/07/06 08:52:40;;;;;;;17.77;15.88;;;;;;;26.70;57.98;98853.44;5015202;28;20189;-90
2022/07/06 08:55:05;;;;;;;19.50;16.38;;;;;;;28.04;57.26;99043.44;5016093;28;20188;-90
2022/07/06 08:57:31;;;;;;;17.55;15.50;;;;;;;27.59;58.88;99055.25;5017388;28;20182;-89
2022/07/06 08:59:56;;;;;;;19.00;16.20;;;;;;;27.47;60.35;99067.72;5017581;28;20217;-90
2022/07/06 09:02:26;;;;;;;19.42;16.88;;;;;;;26.80;60.60;98944.06;5005324;28;20251;-87
2022/07/06 09:04:56;;;;;;;18.02;16.13;;;;;;;27.19;58.66;98946.38;5016735;28;20237;-83
2022/07/06 09:07:21;;;;;;;20.67;15.82;;;;;;;27.80;59.56;99057.19;5033062;28;20266;-87
2022/07/06 09:09:47;;;;;;;18.75;16.75;;;;;;;27.16;60.73;98993.25;5036457;28;20523;-88
2022/07/06 09:12:13;;;;;;;20.65;16.70;;;;;;;26.15;61.64;98865.38;5030704;28;20281;-89
2022/07/06 09:14:38;;;;;;;19.52;17.23;;;;;;;27.19;62.76;99071.16;5017450;28;20190;-89
2022/07/06 09:17:05;;;;;;;20.08;16.70;;;;;;;26.83;64.48;99021.91;5013312;28;20317;-89
2022/07/06 09:19:33;;;;;;;22.08;16.58;;;;;;;27.38;62.75;99083.56;5012614;28;20650;-89
2022/07/06 09:21:59;;;;;;;20.35;17.58;;;;;;;27.02;62.76;99024.84;5013082;28;20216;-88
2022/07/06 09:24:26;;;;;;;20.02;16.77;;;;;;;27.34;62.26;99066.34;5016681;28;20197;-88
2022/07/06 09:26:55;;;;;;;20.55;16.10;;;;;;;26.12;62.56;98890.56;5011904;28;20180;-88
2022/07/06 09:29:28;;;;;;;19.77;16.75;;;;;;;27.21;63.18;99080.59;5011621;28;20196;-88
2022/07/06 09:32:01;;;;;;;21.63;17.20;;;;;;;26.64;62.50;98947.97;5011737;28;20216;-87
2022/07/06 09:34:42;;;;;;;20.73;16.88;;;;;;;27.57;62.38;99075.25;5012269;28;20181;-90
2022/07/06 09:37:08;;;;;;;20.45;17.08;;;;;;;26.58;61.41;98879.75;5011174;28;20204;-89
2022/07/06 09:39:33;;;;;;;22.00;17.02;;;;;;;26.35;60.36;98780.03;5012850;28;20187;-89
2022/07/06 09:42:00;;;;;;;20.73;16.42;;;;;;;27.42;59.15;98910.13;5010857;28;20347;-90
2022/07/06 09:44:31;;;;;;;19.85;16.27;;;;;;;26.49;59.59;98781.34;5012465;28;20184;-89
2022/07/06 09:47:01;;;;;;;19.27;16.15;;;;;;;27.99;59.65;99022.69;5013529;28;20184;-89
2022/07/06 09:49:26;;;;;;;20.80;16.05;;;;;;;28.28;57.47;99016.56;5018924;28;20200;-88
2022/07/06 09:51:55;;;;;;;20.83;15.40;;;;;;;27.99;56.63;98921.19;5015348;28;20186;-88
2022/07/06 09:54:21;;;;;;;19.13;15.40;;;;;;;29.16;55.29;99056.00;5013448;28;20187;-89
2022/07/06 09:56:52;;;;;;;17.88;14.18;;;;;;;28.80;54.84;99051.25;5010789;28;20186;-89
2022/07/06 09:59:26;;;;;;;18.17;14.43;;;;;;;28.02;54.96;98956.69;5013542;28;20218;-89
2022/07/06 10:01:52;;;;;;;16.95;14.73;;;;;;;28.09;55.76;98987.72;5004359;28;20203;-88
2022/07/06 10:04:20;;;;;;;17.52;14.65;;;;;;;27.03;56.08;98803.03;5016500;28;20187;-89
2022/07/06 10:06:46;;;;;;;15.93;14.32;;;;;;;28.44;54.36;98964.81;5015697;28;20212;-87
2022/07/06 10:09:12;;;;;;;17.77;13.70;;;;;;;28.43;52.78;98875.41;5016463;28;20204;-88
2022/07/06 10:11:40;;;;;;;16.23;14.40;;;;;;;29.36;52.09;99037.03;5016239;28;20189;-88
2022/07/06 10:14:08;;;;;;;15.48;13.88;;;;;;;29.39;52.14;99036.06;5032600;28;20753;-87
2022/07/06 10:16:38;;;;;;;16.13;14.30;;;;;;;29.50;52.04;99033.91;5015194;28;20641;-88
2022/07/06 10:19:08;;;;;;;15.88;13.75;;;;;;;27.99;50.23;98681.75;5031807;28;20185;-90
2022/07/06 10:21:39;;;;;;;18.42;14.27;;;;;;;30.35;49.61;99031.31;5018370;28;20679;-89
2022/07/06 10:24:06;;;;;;;18.15;15.52;;;;;;;29.70;50.76;98998.28;5024230;28;20178;-89
2022/07/06 10:26:35;;;;;;;16.83;14.82;;;;;;;29.93;49.48;99028.72;5016270;28;20188;-89
2022/07/06 10:29:03;;;;;;;17.45;15.07;;;;;;;30.24;49.01;99020.47;5012143;28;20189;-89
2022/07/06 10:31:30;;;;;;;19.90;14.25;;;;;;;30.47;47.88;99025.59;5016180;28;20187;-87
2022/07/06 10:34:01;;;;;;;17.85;14.40;;;;;;;30.59;47.62;98998.94;5017813;28;20246;-89
2022/07/06 10:36:27;;;;;;;18.70;15.05;;;;;;;30.26;46.52;98880.19;5015903;28;20194;-88
2022/07/06 10:38:54;;;;;;;18.42;15.45;;;;;;;30.24;47.69;99012.63;5017604;28;20233;-87
2022/07/06 10:41:35;;;;;;;16.80;15.00;;;;;;;29.94;47.65;98876.38;5015297;28;20276;-90
2022/07/06 10:44:44;;;;;;;25.10;17.48;;;;;;;31.24;45.58;98950.66;5035052;28;20219;-91
2022/07/06 10:47:09;;;;;;;14.88;13.27;;;;;;;31.09;44.82;98951.38;5018388;28;20225;-89
2022/07/06 10:49:48;;;;;;;18.60;15.23;;;;;;;30.28;46.63;98857.47;5023471;28;20202;-89
2022/07/06 10:52:17;;;;;;;17.98;15.15;;;;;;;31.01;43.78;98830.59;5022596;28;20265;-89
2022/07/06 10:54:43;;;;;;;23.52;15.05;;;;;;;31.34;43.18;98797.56;5020945;28;20189;-88
2022/07/06 10:57:10;;;;;;;21.27;13.88;;;;;;;31.68;41.73;98904.91;5031155;28;20193;-91
2022/07/06 10:59:35;;;;;;;14.70;13.10;;;;;;;31.73;40.25;98781.63;5008536;28;20193;-91
2022/07/06 11:02:18;;;;;;;13.57;12.00;;;;;;;32.42;40.47;99008.53;5002603;28;20218;-84
2022/07/06 11:04:48;;;;;;;17.30;13.30;;;;;;;31.93;41.89;98978.69;5014041;28;20198;-91
2022/07/06 11:07:18;;;;;;;14.43;12.93;;;;;;;31.45;40.31;98913.84;5012932;28;20225;-88
2022/07/06 11:10:00;;;;;;;14.23;12.07;;;;;;;31.98;40.90;98963.59;4996266;28;20209;-89
2022/07/06 11:12:25;;;;;;;15.73;12.40;;;;;;;31.21;40.36;98776.38;5013956;28;20185;-90
2022/07/06 11:14:52;;;;;;;15.05;11.80;;;;;;;32.85;38.78;98996.72;5014167;28;20202;-89
2022/07/06 11:17:18;;;;;;;16.45;12.82;;;;;;;33.23;39.27;99005.16;4996909;28;20229;-91
2022/07/06 11:19:54;;;;;;;14.43;12.43;;;;;;;32.96;38.85;98804.63;4996790;28;20245;-89
2022/07/06 11:22:20;;;;;;;11.40;10.30;;;;;;;33.92;35.07;98950.47;5014031;28;20263;-90